createdAt,value
2019-04-01T00:00:58.804Z,11.50
2019-04-01T00:05:06.878Z,10.70
2019-04-01T00:09:14.815Z,10.97
2019-04-01T00:13:23.113Z,11.50
2019-04-01T00:17:30.675Z,11.57
2019-04-01T00:21:38.872Z,11.23
2019-04-01T00:25:47.478Z,10.53
2019-04-01T00:29:55.203Z,9.93
2019-04-01T00:34:03.404Z,9.60
2019-04-01T00:38:11.018Z,11.53
2019-04-01T00:42:33.345Z,11.57
2019-04-01T00:46:41.782Z,10.00
2019-04-01T00:50:49.606Z,11.07
2019-04-01T00:54:57.720Z,10.57
2019-04-01T00:59:05.930Z,9.67
2019-04-01T01:03:13.742Z,10.17
2019-04-01T01:07:21.804Z,10.33
2019-04-01T01:11:29.585Z,10.63
2019-04-01T01:15:37.298Z,9.87
2019-04-01T01:19:45.610Z,9.70
2019-04-01T01:23:53.740Z,9.57
2019-04-01T01:28:01.446Z,10.07
2019-04-01T01:32:09.258Z,11.23
2019-04-01T01:36:17.046Z,10.83
2019-04-01T01:40:25.067Z,10.83
2019-04-01T01:44:33.286Z,11.10
2019-04-01T01:48:42.002Z,11.50
2019-04-01T01:52:49.707Z,12.27
2019-04-01T01:56:57.946Z,12.13
2019-04-01T02:01:06.781Z,8.90
2019-04-01T02:05:14.593Z,9.07
2019-04-01T02:09:22.497Z,9.03
2019-04-01T02:13:30.110Z,8.97
2019-04-01T02:17:38.832Z,12.43
2019-04-01T02:21:47.056Z,42.03
2019-04-01T02:25:54.757Z,51.90
2019-04-01T02:30:03.101Z,30.53
2019-04-01T02:34:12.234Z,23.17
2019-04-01T02:38:19.832Z,32.37
2019-04-01T02:42:27.843Z,18.97
2019-04-01T02:46:36.322Z,17.93
2019-04-01T02:50:43.986Z,17.13
2019-04-01T02:54:52.092Z,13.40
2019-04-01T02:59:00.396Z,11.00
2019-04-01T03:03:08.134Z,10.10
2019-04-01T03:07:16.140Z,10.00
2019-04-01T03:11:24.035Z,9.30
2019-04-01T03:15:31.957Z,9.87
2019-04-01T03:19:39.777Z,9.67
2019-04-01T03:23:47.492Z,7.67
2019-04-01T03:27:56.234Z,8.63
2019-04-01T03:32:04.118Z,7.53
2019-04-01T03:36:11.968Z,8.27
2019-04-01T03:40:19.833Z,8.33
2019-04-01T03:44:28.375Z,8.03
2019-04-01T03:48:36.597Z,9.40
2019-04-01T03:52:44.298Z,9.43
2019-04-01T03:56:52.306Z,9.03
2019-04-01T04:01:00.507Z,7.97
2019-04-01T04:05:08.388Z,8.00
2019-04-01T04:09:16.258Z,7.70
2019-04-01T04:13:24.363Z,7.43
2019-04-01T04:17:32.069Z,7.43
2019-04-01T04:21:40.093Z,9.07
2019-04-01T04:25:50.394Z,11.70
2019-04-01T04:29:58.064Z,12.57
2019-04-01T04:34:06.373Z,10.20
2019-04-01T04:38:14.568Z,11.37
2019-04-01T04:42:22.523Z,14.33
2019-04-01T04:46:30.342Z,16.83
2019-04-01T04:50:38.254Z,14.60
2019-04-01T04:54:45.962Z,12.53
2019-04-01T04:58:53.978Z,17.83
2019-04-01T05:03:01.773Z,11.50
2019-04-01T05:07:09.505Z,11.43
2019-04-01T05:11:17.715Z,18.50
2019-04-01T05:15:25.413Z,17.87
2019-04-01T05:19:33.425Z,19.40
2019-04-01T05:23:41.530Z,16.33
2019-04-01T05:27:50.043Z,16.13
2019-04-01T05:32:00.052Z,15.40
2019-04-01T05:36:09.096Z,13.77
2019-04-01T05:40:17.089Z,15.27
2019-04-01T05:44:24.896Z,16.10
2019-04-01T05:48:33.227Z,19.67
2019-04-01T05:52:41.028Z,23.17
2019-04-01T05:56:49.056Z,19.27
2019-04-01T06:01:02.376Z,18.30
2019-04-01T06:05:10.511Z,18.43
2019-04-01T06:09:18.871Z,18.13
2019-04-01T06:13:26.762Z,18.00
2019-04-01T06:17:35.058Z,14.83
2019-04-01T06:21:42.784Z,9.73
2019-04-01T06:25:51.097Z,15.03
2019-04-01T06:29:59.394Z,14.47
2019-04-01T06:34:07.236Z,14.17
2019-04-01T06:38:15.237Z,7.07
2019-04-01T06:42:23.057Z,7.50
2019-04-01T06:46:31.377Z,6.87
2019-04-01T06:50:39.365Z,8.10
2019-04-01T06:54:47.415Z,9.57
2019-04-01T06:58:55.421Z,8.20
2019-04-01T07:03:04.027Z,10.77
2019-04-01T07:07:19.005Z,11.40
2019-04-01T07:11:21.842Z,11.87
2019-04-01T07:15:29.551Z,9.50
2019-04-01T07:19:37.252Z,8.27
2019-04-01T07:23:45.851Z,7.47
2019-04-01T07:27:53.592Z,6.57
2019-04-01T07:32:01.584Z,6.73
2019-04-01T07:36:10.319Z,7.23
2019-04-01T07:40:18.347Z,9.20
2019-04-01T07:44:26.348Z,6.53
2019-04-01T07:48:33.933Z,6.17
2019-04-01T07:52:41.506Z,5.60
2019-04-01T07:56:49.508Z,6.30
2019-04-01T08:00:57.294Z,7.97
2019-04-01T08:05:05.403Z,8.60
2019-04-01T08:09:13.430Z,14.07
2019-04-01T08:13:21.532Z,13.50
2019-04-01T08:17:29.335Z,6.50
2019-04-01T08:21:37.254Z,6.63
2019-04-01T08:25:47.750Z,10.07
2019-04-01T08:29:54.518Z,6.00
2019-04-01T08:34:02.632Z,5.70
2019-04-01T08:38:10.977Z,6.57
2019-04-01T08:42:19.365Z,5.53
2019-04-01T08:46:27.596Z,5.57
2019-04-01T08:50:35.552Z,11.83
2019-04-01T08:54:43.326Z,5.30
2019-04-01T08:58:51.234Z,6.90
2019-04-01T09:02:59.245Z,8.23
2019-04-01T09:07:07.076Z,6.03
2019-04-01T09:11:15.294Z,4.47
2019-04-01T09:15:23.194Z,11.28
2019-04-01T09:19:30.990Z,4.87
2019-04-01T09:23:38.914Z,4.33
2019-04-01T09:27:46.725Z,3.47
2019-04-01T09:31:54.819Z,5.25
2019-04-01T09:36:02.857Z,6.00
2019-04-01T09:40:11.266Z,6.33
2019-04-01T09:44:18.919Z,6.20
2019-04-01T09:48:27.312Z,5.13
2019-04-01T09:52:35.406Z,5.83
2019-04-01T09:56:43.341Z,5.10
2019-04-01T10:00:53.214Z,5.30
2019-04-01T10:05:00.599Z,5.40
2019-04-01T10:09:09.679Z,5.87
2019-04-01T10:13:17.427Z,5.60
2019-04-01T10:17:25.237Z,5.80
2019-04-01T10:21:33.474Z,6.00
2019-04-01T10:25:41.261Z,7.10
2019-04-01T10:29:49.088Z,5.57
2019-04-01T10:33:56.978Z,5.73
2019-04-01T10:38:04.807Z,6.23
2019-04-01T10:42:13.456Z,5.90
2019-04-01T10:46:21.658Z,5.80
2019-04-01T10:50:29.446Z,5.77
2019-04-01T10:54:37.335Z,6.10
2019-04-01T10:58:45.137Z,7.40
2019-04-01T11:02:52.720Z,6.63
2019-04-01T11:07:01.121Z,7.30
2019-04-01T11:11:08.930Z,6.80
2019-04-01T11:15:17.513Z,7.20
2019-04-01T11:19:25.371Z,7.67
2019-04-01T11:23:33.914Z,7.13
2019-04-01T11:27:42.512Z,7.70
2019-04-01T11:31:50.662Z,7.60
2019-04-01T11:35:58.479Z,9.17
2019-04-01T11:40:10.953Z,9.63
2019-04-01T11:44:17.063Z,10.63
2019-04-01T11:48:24.768Z,9.03
2019-04-01T11:52:33.166Z,7.47
2019-04-01T11:56:41.513Z,7.70
2019-04-01T12:00:49.732Z,7.63
2019-04-01T12:04:58.127Z,6.90
2019-04-01T12:09:07.822Z,6.70
2019-04-01T12:13:15.420Z,6.27
2019-04-01T12:17:23.556Z,7.00
2019-04-01T12:21:33.403Z,6.83
2019-04-01T12:25:40.932Z,7.03
2019-04-01T12:29:48.883Z,7.53
2019-04-01T12:33:56.930Z,6.50
2019-04-01T12:38:05.458Z,10.10
2019-04-01T12:42:13.418Z,6.20
2019-04-01T12:46:21.265Z,5.93
2019-04-01T12:50:29.571Z,6.97
2019-04-01T12:54:37.916Z,6.87
2019-04-01T12:58:45.618Z,7.50
2019-04-01T13:02:53.615Z,7.43
2019-04-01T13:07:04.895Z,8.30
2019-04-01T13:11:11.318Z,6.70
2019-04-01T13:15:19.106Z,7.20
2019-04-01T13:19:26.819Z,7.00
2019-04-01T13:23:34.541Z,8.70
2019-04-01T13:27:42.843Z,6.73
2019-04-01T13:31:51.305Z,7.03
2019-04-01T13:35:59.363Z,8.93
2019-04-01T13:40:09.002Z,7.20
2019-04-01T13:44:16.759Z,7.10
2019-04-01T13:48:24.749Z,6.60
2019-04-01T13:52:33.189Z,7.43
2019-04-01T13:56:42.954Z,8.13
2019-04-01T14:00:51.175Z,7.00
2019-04-01T14:04:58.970Z,6.97
2019-04-01T14:09:08.205Z,7.10
2019-04-01T14:13:16.222Z,10.03
2019-04-01T14:17:24.596Z,8.93
2019-04-01T14:21:32.363Z,9.60
2019-04-01T14:25:40.285Z,6.50
2019-04-01T14:29:48.085Z,7.40
2019-04-01T14:33:55.799Z,7.93
2019-04-01T14:38:03.691Z,6.80
2019-04-01T14:42:11.937Z,6.97
2019-04-01T14:46:20.649Z,8.27
2019-04-01T14:50:28.726Z,7.33
2019-04-01T14:54:36.675Z,7.10
2019-04-01T14:58:44.328Z,8.23
2019-04-01T15:02:52.249Z,8.33
2019-04-01T15:06:59.804Z,8.37
2019-04-01T15:11:08.105Z,6.43
2019-04-01T15:15:16.553Z,7.70
2019-04-01T15:19:24.376Z,6.50
2019-04-01T15:23:32.171Z,6.50
2019-04-01T15:27:40.510Z,8.33
2019-04-01T15:31:48.155Z,7.33
2019-04-01T15:35:56.455Z,7.37
2019-04-01T15:40:05.143Z,15.37
2019-04-01T15:44:12.955Z,22.73
2019-04-01T15:48:20.866Z,10.77
2019-04-01T15:52:28.682Z,25.27
2019-04-01T15:56:36.290Z,9.97
2019-04-01T16:00:45.185Z,12.43
2019-04-01T16:04:52.833Z,9.50
2019-04-01T16:09:00.848Z,8.73
2019-04-01T16:13:09.576Z,17.80
2019-04-01T16:17:17.306Z,15.07
2019-04-01T16:21:25.114Z,10.27
2019-04-01T16:25:32.910Z,13.40
2019-04-01T16:29:40.528Z,10.27
2019-04-01T16:33:48.982Z,12.53
2019-04-01T16:37:59.339Z,12.00
2019-04-01T16:42:06.200Z,11.77
2019-04-01T16:46:14.141Z,21.93
2019-04-01T16:50:22.039Z,18.73
2019-04-01T16:54:30.141Z,16.27
2019-04-01T16:58:38.080Z,15.30
2019-04-01T17:02:45.781Z,20.13
2019-04-01T17:06:53.893Z,18.60
2019-04-01T17:11:02.192Z,14.90
2019-04-01T17:15:10.303Z,13.97
2019-04-01T17:19:18.134Z,26.00
2019-04-01T17:23:28.092Z,20.77
2019-04-01T17:27:35.395Z,16.23
2019-04-01T17:31:43.199Z,13.60
2019-04-01T17:35:51.014Z,13.17
2019-04-01T17:39:58.734Z,11.53
2019-04-01T17:44:06.764Z,12.27
2019-04-01T17:48:15.470Z,13.13
2019-04-01T17:52:25.180Z,11.10
2019-04-01T17:56:33.307Z,11.90
2019-04-01T18:00:46.079Z,13.43
2019-04-01T18:04:55.093Z,11.90
2019-04-01T18:09:03.912Z,12.30
2019-04-01T18:13:11.967Z,11.13
2019-04-01T18:17:21.413Z,12.97
2019-04-01T18:21:30.018Z,13.10
2019-04-01T18:25:38.070Z,13.17
2019-04-01T18:29:46.287Z,17.30
2019-04-01T18:33:56.560Z,11.80
2019-04-01T18:38:03.938Z,9.57
2019-04-01T18:42:12.270Z,9.93
2019-04-01T18:46:21.138Z,9.20
2019-04-01T18:50:29.824Z,8.73
2019-04-01T18:54:38.555Z,12.93
2019-04-01T18:58:46.364Z,20.53
2019-04-01T19:02:55.685Z,17.20
2019-04-01T19:07:04.414Z,15.27
2019-04-01T19:11:12.565Z,13.83
2019-04-01T19:15:20.812Z,12.37
2019-04-01T19:19:29.295Z,14.57
2019-04-01T19:23:37.014Z,15.37
2019-04-01T19:27:45.041Z,13.03
2019-04-01T19:31:52.822Z,11.47
2019-04-01T19:36:01.366Z,10.70
2019-04-01T19:40:11.003Z,11.17
2019-04-01T19:44:18.627Z,14.23
2019-04-01T19:48:26.760Z,15.07
2019-04-01T19:52:35.323Z,15.60
2019-04-01T19:56:43.187Z,11.93
2019-04-01T20:00:51.415Z,12.10
2019-04-01T20:04:59.409Z,11.80
2019-04-01T20:09:08.781Z,11.87
2019-04-01T20:13:16.995Z,11.30
2019-04-01T20:17:25.077Z,11.53
2019-04-01T20:21:32.942Z,10.90
2019-04-01T20:25:40.669Z,10.77
2019-04-01T20:29:48.920Z,11.67
2019-04-01T20:33:56.635Z,10.57
2019-04-01T20:38:05.286Z,9.90
2019-04-01T20:42:13.191Z,10.67
2019-04-01T20:46:20.900Z,9.23
2019-04-01T20:50:28.910Z,8.73
2019-04-01T20:54:36.824Z,9.03
2019-04-01T20:58:45.036Z,8.70
2019-04-01T21:02:53.670Z,9.50
2019-04-01T21:07:01.388Z,8.77
2019-04-01T21:11:10.232Z,8.90
2019-04-01T21:15:19.896Z,9.77
2019-04-01T21:19:27.668Z,8.33
2019-04-01T21:23:36.139Z,8.90
2019-04-01T21:27:44.327Z,8.57
2019-04-01T21:31:52.114Z,9.87
2019-04-01T21:36:00.137Z,13.13
2019-04-01T21:40:08.198Z,11.63
2019-04-01T21:44:15.948Z,12.70
2019-04-01T21:48:23.777Z,12.10
2019-04-01T21:52:31.782Z,10.90
2019-04-01T21:56:39.412Z,9.87
2019-04-01T22:00:53.712Z,8.57
2019-04-01T22:05:04.736Z,8.60
2019-04-01T22:09:12.547Z,8.40
2019-04-01T22:13:20.668Z,8.70
2019-04-01T22:17:28.372Z,9.27
2019-04-01T22:21:36.686Z,8.97
2019-04-01T22:25:44.835Z,9.27
2019-04-01T22:29:52.430Z,9.23
2019-04-01T22:34:00.338Z,8.40
2019-04-01T22:38:08.251Z,8.63
2019-04-01T22:42:16.267Z,11.27
2019-04-01T22:46:24.365Z,10.70
2019-04-01T22:50:34.458Z,10.93
2019-04-01T22:54:41.940Z,9.10
2019-04-01T22:58:51.106Z,9.53
2019-04-01T23:02:58.944Z,9.83
2019-04-01T23:07:06.507Z,9.20
2019-04-01T23:11:14.722Z,8.33
2019-04-01T23:15:23.964Z,8.57
2019-04-01T23:19:31.431Z,8.77
2019-04-01T23:23:39.421Z,7.73
2019-04-01T23:27:47.269Z,7.87
2019-04-01T23:31:55.487Z,9.23
2019-04-01T23:36:03.709Z,7.73
2019-04-01T23:40:11.528Z,8.50
2019-04-01T23:44:19.951Z,8.67
2019-04-01T23:48:28.357Z,9.07
2019-04-01T23:52:36.286Z,7.93
2019-04-01T23:56:44.569Z,9.30
